Time;durP1;ratioP1;P1;durP2;ratioP2;P2;SDS_P1;SDS_P2;PMS_P1;PMS_P2;Temp;Humidity;BMP_temperature;BMP_pressure;BME280_temperature;BME280_humidity;BME280_pressure;Samples;Min_cycle;Max_cycle;Signal;HPM_P1;HPM_P2
2022/01/14 00:01:13;;;;;;;11.35;6.90;;;;;;;;;;5001661;28;20183;-57
2022/01/14 00:03:39;;;;;;;9.43;6.88;;;;;;;;;;4995519;28;20645;-57
2022/01/14 00:06:04;;;;;;;8.48;6.28;;;;;;;;;;4990691;28;20186;-57
2022/01/14 00:08:29;;;;;;;12.05;6.80;;;;;;;;;;4996049;28;20191;-57
2022/01/14 00:10:56;;;;;;;13.50;6.43;;;;;;;;;;4998606;28;20187;-57
2022/01/14 00:16:05;;;;;;;10.93;6.13;;;;;;;;;;5004680;28;20171;-58
2022/01/14 00:18:31;;;;;;;11.40;6.40;;;;;;;;;;4993441;28;20180;-58
2022/01/14 00:20:57;;;;;;;10.18;6.47;;;;;;;;;;4999510;28;20172;-57
2022/01/14 00:23:30;;;;;;;9.43;6.50;;;;;;;;;;4998461;28;20645;-58
2022/01/14 00:34:07;;;;;;;8.10;5.50;;;;;;;;;;4995513;28;20192;-57
2022/01/14 00:36:32;;;;;;;7.65;5.50;;;;;;;;;;5006810;28;20249;-57
2022/01/14 00:38:57;;;;;;;7.57;5.53;;;;;;;;;;5002469;28;20211;-57
2022/01/14 00:41:22;;;;;;;7.18;5.22;;;;;;;;;;5009686;28;20958;-57
2022/01/14 00:43:50;;;;;;;6.25;4.93;;;;;;;;;;5007578;28;20266;-57
2022/01/14 00:46:15;;;;;;;6.75;4.32;;;;;;;;;;5007668;28;20571;-57
2022/01/14 00:48:41;;;;;;;5.88;4.65;;;;;;;;;;4998035;28;20190;-57
2022/01/14 00:51:06;;;;;;;6.65;4.53;;;;;;;;;;4999490;28;20174;-57
2022/01/14 00:53:31;;;;;;;11.57;7.38;;;;;;;;;;5002517;28;20234;-57
2022/01/14 00:56:06;;;;;;;8.00;4.30;;;;;;;;;;5001925;28;20175;-57
2022/01/14 01:01:16;;;;;;;6.03;3.75;;;;;;;;;;4998511;28;20178;-57
2022/01/14 01:03:41;;;;;;;7.30;4.30;;;;;;;;;;4992197;28;20576;-57
2022/01/14 01:06:07;;;;;;;5.53;4.13;;;;;;;;;;4997706;28;20179;-58
2022/01/14 01:08:33;;;;;;;4.88;4.25;;;;;;;;;;4998027;28;20186;-57
2022/01/14 01:10:59;;;;;;;5.72;5.13;;;;;;;;;;4998241;28;20179;-57
2022/01/14 01:13:29;;;;;;;7.38;4.60;;;;;;;;;;4998509;28;20179;-57
2022/01/14 01:15:54;;;;;;;6.82;4.43;;;;;;;;;;4995464;28;20175;-58
2022/01/14 01:18:20;;;;;;;4.68;4.20;;;;;;;;;;4996040;28;20180;-58
2022/01/14 01:20:46;;;;;;;6.03;4.60;;;;;;;;;;4993686;28;20234;-58
2022/01/14 01:23:11;;;;;;;6.45;4.72;;;;;;;;;;5003588;28;20640;-57
2022/01/14 01:25:45;;;;;;;5.75;4.60;;;;;;;;;;5002804;28;20714;-57
2022/01/14 01:28:10;;;;;;;7.57;5.60;;;;;;;;;;5003600;28;20183;-58
2022/01/14 01:33:02;;;;;;;7.30;5.32;;;;;;;;;;4998349;28;20177;-57
2022/01/14 01:35:28;;;;;;;7.20;5.13;;;;;;;;;;5001420;28;20732;-58
2022/01/14 01:37:53;;;;;;;8.52;4.95;;;;;;;;;;5004727;28;20187;-57
2022/01/14 01:40:20;;;;;;;6.78;4.90;;;;;;;;;;5003571;28;20179;-57
2022/01/14 01:42:45;;;;;;;8.50;4.93;;;;;;;;;;4998870;28;20198;-57
2022/01/14 01:45:20;;;;;;;6.15;4.45;;;;;;;;;;4996409;28;20175;-57
2022/01/14 01:47:49;;;;;;;5.47;4.53;;;;;;;;;;5006523;28;20286;-57
2022/01/14 01:50:16;;;;;;;5.00;4.50;;;;;;;;;;5006266;28;20197;-57
2022/01/14 01:52:42;;;;;;;5.45;4.13;;;;;;;;;;4996656;28;20341;-58
2022/01/14 01:55:07;;;;;;;5.97;4.32;;;;;;;;;;4998498;28;20203;-57
2022/01/14 01:57:32;;;;;;;4.85;4.28;;;;;;;;;;5001020;28;20190;-57
2022/01/14 01:59:58;;;;;;;5.80;4.25;;;;;;;;;;5001305;28;20237;-58
2022/01/14 02:02:23;;;;;;;5.85;4.70;;;;;;;;;;4989601;28;20180;-57
2022/01/14 02:04:49;;;;;;;7.38;4.53;;;;;;;;;;4997127;28;20191;-57
2022/01/14 02:07:14;;;;;;;5.50;4.70;;;;;;;;;;4996511;28;20262;-57
2022/01/14 02:09:39;;;;;;;6.07;4.07;;;;;;;;;;4999045;28;20186;-57
2022/01/14 02:12:09;;;;;;;6.32;4.72;;;;;;;;;;4993202;28;20191;-57
2022/01/14 02:19:43;;;;;;;6.22;5.00;;;;;;;;;;5001010;28;20174;-57
2022/01/14 02:22:13;;;;;;;6.47;5.15;;;;;;;;;;5001025;28;20178;-57
2022/01/14 02:27:05;;;;;;;7.35;4.50;;;;;;;;;;5005783;28;20180;-57
2022/01/14 02:29:30;;;;;;;5.40;4.53;;;;;;;;;;4996877;28;20676;-56
2022/01/14 02:31:56;;;;;;;6.22;4.55;;;;;;;;;;4995548;28;20186;-57
2022/01/14 02:34:21;;;;;;;5.75;4.57;;;;;;;;;;4978715;28;20212;-57
2022/01/14 02:36:47;;;;;;;6.40;4.75;;;;;;;;;;4997124;28;20322;-57
2022/01/14 02:39:13;;;;;;;7.10;4.93;;;;;;;;;;5001487;28;20187;-57
2022/01/14 02:41:39;;;;;;;6.50;4.45;;;;;;;;;;4996707;28;20179;-56
2022/01/14 02:44:05;;;;;;;6.70;5.15;;;;;;;;;;4994596;28;20787;-57
2022/01/14 02:46:36;;;;;;;5.97;4.25;;;;;;;;;;4991067;28;20292;-57
2022/01/14 02:49:02;;;;;;;7.50;5.10;;;;;;;;;;4995105;28;20687;-57
2022/01/14 02:51:27;;;;;;;7.32;4.68;;;;;;;;;;4999659;28;20175;-56
2022/01/14 02:53:58;;;;;;;6.80;4.82;;;;;;;;;;5000100;28;20195;-56
2022/01/14 02:56:27;;;;;;;6.07;4.78;;;;;;;;;;4996640;28;20214;-56
2022/01/14 02:58:54;;;;;;;8.00;4.95;;;;;;;;;;4998417;28;20233;-57
2022/01/14 03:01:22;;;;;;;6.38;4.63;;;;;;;;;;4997993;28;20192;-57
2022/01/14 03:03:48;;;;;;;7.32;4.72;;;;;;;;;;5001730;28;20228;-57
2022/01/14 03:06:14;;;;;;;8.23;4.80;;;;;;;;;;4997405;28;20183;-57
2022/01/14 03:08:41;;;;;;;5.82;4.35;;;;;;;;;;5002565;28;20183;-57
2022/01/14 03:11:12;;;;;;;6.22;4.22;;;;;;;;;;4999573;28;20187;-58
2022/01/14 03:13:39;;;;;;;6.00;4.80;;;;;;;;;;4998111;28;20695;-57
2022/01/14 03:16:04;;;;;;;4.95;4.22;;;;;;;;;;4985598;28;20211;-57
2022/01/14 03:18:44;;;;;;;5.03;3.88;;;;;;;;;;4977619;28;20282;-57
2022/01/14 03:21:11;;;;;;;4.32;3.65;;;;;;;;;;5001536;28;20575;-57
2022/01/14 03:23:43;;;;;;;5.63;4.65;;;;;;;;;;4994849;28;20191;-56
2022/01/14 03:26:08;;;;;;;4.30;3.90;;;;;;;;;;4999538;28;20653;-58
2022/01/14 03:28:34;;;;;;;5.07;4.10;;;;;;;;;;5002513;28;20185;-57
2022/01/14 03:30:59;;;;;;;3.90;3.40;;;;;;;;;;4999001;28;20179;-57
2022/01/14 03:33:24;;;;;;;3.63;3.33;;;;;;;;;;4995106;28;20582;-57
2022/01/14 03:35:49;;;;;;;4.57;4.13;;;;;;;;;;4987244;28;20168;-57
2022/01/14 03:38:15;;;;;;;5.80;3.80;;;;;;;;;;4976511;28;20191;-58
2022/01/14 03:40:40;;;;;;;4.22;3.65;;;;;;;;;;4978567;28;20180;-57
2022/01/14 03:43:05;;;;;;;5.18;3.70;;;;;;;;;;4991417;28;20641;-57
2022/01/14 03:45:31;;;;;;;4.50;4.03;;;;;;;;;;4992841;28;20187;-57
2022/01/14 03:47:56;;;;;;;5.65;4.22;;;;;;;;;;4997190;28;20208;-58
2022/01/14 03:50:22;;;;;;;5.50;4.97;;;;;;;;;;4992249;28;20199;-57
2022/01/14 03:52:47;;;;;;;10.93;6.13;;;;;;;;;;5008430;28;20290;-57
2022/01/14 03:55:12;;;;;;;4.53;4.10;;;;;;;;;;4995681;28;20289;-56
2022/01/14 03:57:37;;;;;;;4.30;3.67;;;;;;;;;;5002890;28;20908;-57
2022/01/14 04:00:03;;;;;;;5.35;3.63;;;;;;;;;;5000184;28;20179;-56
2022/01/14 04:02:28;;;;;;;3.47;3.03;;;;;;;;;;5002100;28;20237;-56
2022/01/14 04:04:54;;;;;;;3.20;2.90;;;;;;;;;;5005065;28;20180;-57
2022/01/14 04:07:19;;;;;;;3.90;3.20;;;;;;;;;;5001443;28;20638;-57
2022/01/14 04:09:44;;;;;;;4.05;3.38;;;;;;;;;;4998288;28;20180;-57
2022/01/14 04:12:16;;;;;;;4.85;3.30;;;;;;;;;;5008739;28;20262;-57
2022/01/14 04:17:10;;;;;;;3.65;3.17;;;;;;;;;;5001447;28;20176;-57
2022/01/14 04:19:35;;;;;;;6.57;3.65;;;;;;;;;;4982899;28;20175;-57
2022/01/14 04:22:01;;;;;;;4.88;3.95;;;;;;;;;;4980969;28;20303;-57
2022/01/14 04:24:26;;;;;;;4.35;3.50;;;;;;;;;;4986596;28;20223;-57
2022/01/14 04:26:51;;;;;;;4.82;3.63;;;;;;;;;;4992480;28;20180;-56
2022/01/14 04:29:17;;;;;;;4.80;3.85;;;;;;;;;;4996612;28;20184;-56
2022/01/14 04:31:42;;;;;;;4.18;3.20;;;;;;;;;;4999878;28;20190;-57
2022/01/14 04:34:07;;;;;;;5.97;3.35;;;;;;;;;;4995156;28;20635;-57
2022/01/14 04:36:33;;;;;;;5.32;4.00;;;;;;;;;;5002709;28;20186;-57
2022/01/14 04:38:59;;;;;;;3.70;3.30;;;;;;;;;;4994607;28;20185;-56
2022/01/14 04:41:24;;;;;;;5.78;4.07;;;;;;;;;;4998952;28;20175;-57
2022/01/14 04:43:49;;;;;;;5.28;3.13;;;;;;;;;;5000500;28;20720;-57
2022/01/14 04:46:46;;;;;;;6.10;4.10;;;;;;;;;;5006365;28;21209;-57
2022/01/14 04:49:00;;;;;;;4.30;3.47;;;;;;;;;;4989928;28;20265;-58
2022/01/14 04:51:25;;;;;;;6.28;4.22;;;;;;;;;;4994940;28;20176;-57
2022/01/14 04:53:50;;;;;;;3.47;3.17;;;;;;;;;;5003642;28;20202;-58
2022/01/14 04:56:15;;;;;;;6.95;4.00;;;;;;;;;;5005988;28;20667;-57
2022/01/14 04:58:41;;;;;;;4.88;3.25;;;;;;;;;;5005625;28;20183;-57
2022/01/14 05:01:06;;;;;;;3.60;3.30;;;;;;;;;;4985819;28;20176;-58
2022/01/14 05:03:31;;;;;;;5.03;4.00;;;;;;;;;;4979129;28;20183;-57
2022/01/14 05:05:59;;;;;;;5.10;4.38;;;;;;;;;;4982598;28;20218;-58
2022/01/14 05:08:30;;;;;;;3.75;3.25;;;;;;;;;;4999618;28;20314;-57
2022/01/14 05:13:24;;;;;;;4.43;3.60;;;;;;;;;;5004518;28;20191;-57
2022/01/14 05:15:50;;;;;;;4.00;3.60;;;;;;;;;;5004684;28;20180;-57
2022/01/14 05:18:15;;;;;;;3.70;3.33;;;;;;;;;;4994982;28;20713;-57
2022/01/14 05:20:40;;;;;;;4.45;3.67;;;;;;;;;;5006215;28;20175;-58
2022/01/14 05:23:06;;;;;;;5.00;3.65;;;;;;;;;;4978868;28;20551;-57
2022/01/14 05:25:31;;;;;;;4.75;4.32;;;;;;;;;;4979620;28;20186;-57
2022/01/14 05:27:56;;;;;;;4.28;3.70;;;;;;;;;;4985292;28;20365;-57
2022/01/14 05:30:21;;;;;;;4.88;3.75;;;;;;;;;;5001530;28;20573;-56
2022/01/14 05:32:48;;;;;;;4.13;3.75;;;;;;;;;;5004028;28;20174;-57
2022/01/14 05:35:15;;;;;;;5.72;4.18;;;;;;;;;;5004979;28;20195;-56
2022/01/14 05:37:40;;;;;;;4.75;4.13;;;;;;;;;;4993899;28;20180;-57
2022/01/14 05:40:06;;;;;;;5.25;4.13;;;;;;;;;;4996849;28;20171;-57
2022/01/14 05:42:33;;;;;;;3.47;2.97;;;;;;;;;;4986753;28;20206;-58
2022/01/14 05:44:59;;;;;;;7.80;3.75;;;;;;;;;;4997701;28;20252;-58
2022/01/14 05:47:24;;;;;;;23.73;19.98;;;;;;;;;;4999473;28;20666;-58
2022/01/14 05:49:49;;;;;;;9.45;7.32;;;;;;;;;;5001890;28;20195;-57
2022/01/14 05:52:15;;;;;;;5.35;4.28;;;;;;;;;;5004389;28;20763;-57
2022/01/14 05:54:40;;;;;;;4.15;3.13;;;;;;;;;;4997652;28;20208;-58
2022/01/14 05:57:05;;;;;;;8.30;4.70;;;;;;;;;;4994548;28;20775;-57
2022/01/14 05:59:31;;;;;;;7.25;6.20;;;;;;;;;;4994963;28;20184;-57
2022/01/14 06:01:56;;;;;;;9.57;5.30;;;;;;;;;;5002520;28;20172;-57
2022/01/14 06:04:21;;;;;;;4.80;4.30;;;;;;;;;;4997679;28;20179;-57
2022/01/14 06:06:46;;;;;;;11.70;6.28;;;;;;;;;;4998161;28;20261;-57
2022/01/14 06:09:12;;;;;;;16.70;8.55;;;;;;;;;;5000815;28;20208;-58
2022/01/14 06:11:37;;;;;;;17.02;8.73;;;;;;;;;;5003680;28;20171;-57
2022/01/14 06:14:02;;;;;;;6.03;4.20;;;;;;;;;;4999787;28;20277;-58
2022/01/14 06:16:27;;;;;;;8.68;5.40;;;;;;;;;;4991310;28;20641;-57
2022/01/14 06:18:53;;;;;;;5.38;3.55;;;;;;;;;;4996769;28;20699;-57
2022/01/14 06:21:18;;;;;;;4.22;3.20;;;;;;;;;;4997652;28;20263;-58
2022/01/14 06:23:43;;;;;;;5.75;4.82;;;;;;;;;;5003202;28;20182;-57
2022/01/14 06:26:08;;;;;;;14.18;8.48;;;;;;;;;;4980313;28;20203;-57
2022/01/14 06:28:34;;;;;;;4.68;3.63;;;;;;;;;;4978611;28;20712;-57
2022/01/14 06:30:59;;;;;;;23.25;12.02;;;;;;;;;;4998264;28;20245;-57
2022/01/14 06:33:24;;;;;;;23.65;12.65;;;;;;;;;;4994085;28;20191;-57
2022/01/14 06:35:49;;;;;;;20.55;10.95;;;;;;;;;;4998918;28;20176;-56
2022/01/14 06:38:15;;;;;;;24.60;13.07;;;;;;;;;;4994940;28;20175;-57
2022/01/14 06:40:41;;;;;;;17.70;10.23;;;;;;;;;;4994120;28;20235;-57
2022/01/14 06:43:06;;;;;;;23.70;13.05;;;;;;;;;;4989985;28;20268;-58
2022/01/14 06:45:31;;;;;;;20.52;11.00;;;;;;;;;;5003924;28;20182;-56
2022/01/14 06:47:57;;;;;;;9.25;5.22;;;;;;;;;;4996698;28;20297;-56
2022/01/14 06:50:22;;;;;;;10.75;7.68;;;;;;;;;;4998263;28;20265;-57
2022/01/14 06:52:47;;;;;;;17.77;11.88;;;;;;;;;;5001272;28;20190;-57
2022/01/14 06:55:13;;;;;;;37.15;24.25;;;;;;;;;;5007301;28;20681;-57
2022/01/14 06:57:38;;;;;;;29.48;18.10;;;;;;;;;;5007268;28;20198;-57
2022/01/14 07:00:05;;;;;;;28.08;16.73;;;;;;;;;;4995500;28;20225;-57
2022/01/14 07:02:31;;;;;;;18.60;12.68;;;;;;;;;;5007168;28;20190;-58
2022/01/14 07:04:56;;;;;;;14.43;9.75;;;;;;;;;;4997945;28;20180;-58
2022/01/14 07:07:21;;;;;;;19.10;11.18;;;;;;;;;;4986442;28;20840;-58
2022/01/14 07:09:56;;;;;;;18.95;13.35;;;;;;;;;;4977307;28;20186;-58
2022/01/14 07:12:31;;;;;;;23.60;14.95;;;;;;;;;;4999154;28;20170;-57
2022/01/14 07:14:56;;;;;;;22.55;15.02;;;;;;;;;;4989021;28;20589;-57
2022/01/14 07:17:22;;;;;;;31.38;17.83;;;;;;;;;;4996956;28;20183;-57
2022/01/14 07:19:50;;;;;;;45.78;24.30;;;;;;;;;;5000372;28;20210;-57
2022/01/14 07:22:15;;;;;;;43.25;23.60;;;;;;;;;;5017613;28;20183;-57
2022/01/14 07:24:41;;;;;;;26.55;14.95;;;;;;;;;;4997442;28;20668;-60
2022/01/14 07:27:06;;;;;;;22.17;14.23;;;;;;;;;;5003981;28;20292;-57
2022/01/14 07:29:31;;;;;;;26.95;16.50;;;;;;;;;;5000669;28;20190;-56
2022/01/14 07:31:56;;;;;;;24.80;15.35;;;;;;;;;;5001001;28;20194;-58
2022/01/14 07:34:24;;;;;;;24.15;15.88;;;;;;;;;;5001233;28;20234;-57
2022/01/14 07:36:49;;;;;;;27.27;15.45;;;;;;;;;;5004595;28;20222;-58
2022/01/14 07:39:14;;;;;;;30.33;17.50;;;;;;;;;;5004726;28;20616;-58
2022/01/14 07:41:40;;;;;;;18.23;13.98;;;;;;;;;;5007853;28;20198;-58
2022/01/14 07:44:05;;;;;;;14.13;9.77;;;;;;;;;;4999684;28;20187;-58
2022/01/14 07:46:31;;;;;;;16.92;12.57;;;;;;;;;;4993133;28;20262;-58
2022/01/14 07:48:56;;;;;;;11.98;9.80;;;;;;;;;;5000818;28;20274;-57
2022/01/14 07:51:21;;;;;;;12.52;9.38;;;;;;;;;;4999046;28;20195;-58
2022/01/14 07:53:47;;;;;;;12.52;9.38;;;;;;;;;;5001617;28;20298;-58
2022/01/14 07:56:13;;;;;;;14.25;10.32;;;;;;;;;;5002215;28;20178;-59
2022/01/14 07:58:39;;;;;;;13.00;9.50;;;;;;;;;;5005853;28;20183;-58
2022/01/14 08:01:04;;;;;;;14.52;10.75;;;;;;;;;;5007220;28;20175;-57
2022/01/14 08:03:30;;;;;;;15.35;10.35;;;;;;;;;;4992939;28;20211;-57
2022/01/14 08:05:57;;;;;;;20.70;11.98;;;;;;;;;;4997695;28;20234;-57
2022/01/14 08:08:23;;;;;;;19.67;12.10;;;;;;;;;;4992120;28;20601;-59
2022/01/14 08:10:48;;;;;;;18.20;11.65;;;;;;;;;;4984686;28;20190;-56
2022/01/14 08:13:14;;;;;;;19.70;12.07;;;;;;;;;;4999617;28;21226;-58
2022/01/14 08:15:39;;;;;;;17.33;11.10;;;;;;;;;;5002187;28;20203;-59
2022/01/14 08:18:06;;;;;;;26.42;16.13;;;;;;;;;;4997494;28;20205;-58
2022/01/14 08:20:31;;;;;;;22.25;12.95;;;;;;;;;;5007107;28;20179;-57
2022/01/14 08:22:58;;;;;;;20.00;11.55;;;;;;;;;;5002146;28;20258;-57
2022/01/14 08:25:23;;;;;;;15.55;10.02;;;;;;;;;;5006808;28;20237;-58
2022/01/14 08:27:49;;;;;;;15.02;9.48;;;;;;;;;;4999924;28;20175;-58
2022/01/14 08:30:14;;;;;;;23.83;14.75;;;;;;;;;;4998992;28;20258;-58
2022/01/14 08:32:39;;;;;;;21.95;13.10;;;;;;;;;;4982823;28;20942;-57
2022/01/14 08:35:05;;;;;;;18.13;12.05;;;;;;;;;;4980763;28;20218;-57
2022/01/14 08:37:30;;;;;;;17.58;11.45;;;;;;;;;;4986803;28;20608;-58
2022/01/14 08:39:55;;;;;;;24.35;10.43;;;;;;;;;;5004409;28;20233;-57
2022/01/14 08:42:21;;;;;;;14.35;9.70;;;;;;;;;;5004502;28;20511;-57
2022/01/14 08:44:48;;;;;;;17.10;10.43;;;;;;;;;;4994860;28;20203;-57
2022/01/14 08:47:14;;;;;;;17.92;11.43;;;;;;;;;;4993576;28;20188;-57
2022/01/14 08:49:40;;;;;;;12.38;7.50;;;;;;;;;;4992642;28;20273;-57
2022/01/14 08:52:06;;;;;;;13.43;6.97;;;;;;;;;;5003592;28;20250;-56
2022/01/14 08:54:32;;;;;;;19.58;8.90;;;;;;;;;;4998529;28;20689;-58
2022/01/14 08:56:57;;;;;;;16.08;12.20;;;;;;;;;;5000522;28;20183;-57
2022/01/14 08:59:23;;;;;;;11.32;8.80;;;;;;;;;;5005737;28;20175;-59
2022/01/14 09:01:48;;;;;;;14.63;13.02;;;;;;;;;;5000083;28;20226;-58
2022/01/14 09:04:14;;;;;;;12.32;9.15;;;;;;;;;;5001736;28;20621;-58
2022/01/14 09:06:39;;;;;;;8.50;6.32;;;;;;;;;;4997156;28;20175;-58
2022/01/14 09:09:06;;;;;;;11.63;7.32;;;;;;;;;;4995308;28;20187;-57
2022/01/14 09:11:32;;;;;;;9.43;6.10;;;;;;;;;;5000475;28;20670;-58
2022/01/14 09:13:57;;;;;;;12.52;7.80;;;;;;;;;;4991198;28;20203;-58
2022/01/14 09:16:23;;;;;;;17.60;8.63;;;;;;;;;;4979437;28;20187;-57
2022/01/14 09:18:48;;;;;;;15.38;8.25;;;;;;;;;;4981208;28;20272;-57
2022/01/14 09:21:14;;;;;;;18.00;9.77;;;;;;;;;;4999361;28;20182;-58
2022/01/14 09:23:39;;;;;;;15.95;8.27;;;;;;;;;;4997426;28;20183;-57
2022/01/14 09:26:04;;;;;;;21.88;9.30;;;;;;;;;;4995907;28;20177;-57
2022/01/14 09:28:30;;;;;;;17.67;9.45;;;;;;;;;;4996442;28;20258;-57
2022/01/14 09:30:56;;;;;;;22.70;9.98;;;;;;;;;;4991498;28;20203;-57
2022/01/14 09:33:22;;;;;;;19.00;8.65;;;;;;;;;;5000027;28;20213;-57
2022/01/14 09:35:47;;;;;;;16.45;8.80;;;;;;;;;;4979766;28;20212;-57
2022/01/14 09:38:13;;;;;;;22.23;8.60;;;;;;;;;;4979243;28;20182;-57
2022/01/14 09:40:44;;;;;;;15.85;10.57;;;;;;;;;;4984319;28;20656;-57
2022/01/14 09:43:13;;;;;;;13.32;7.88;;;;;;;;;;5001929;28;20660;-57
2022/01/14 09:45:39;;;;;;;11.80;7.60;;;;;;;;;;4996772;28;20179;-59
2022/01/14 09:48:04;;;;;;;16.33;8.80;;;;;;;;;;4996188;28;20278;-58
2022/01/14 09:50:30;;;;;;;15.80;9.10;;;;;;;;;;4999493;28;20302;-57
2022/01/14 09:52:55;;;;;;;13.43;8.18;;;;;;;;;;4998307;28;20226;-58
2022/01/14 09:55:21;;;;;;;24.13;11.85;;;;;;;;;;4987038;28;20265;-57
2022/01/14 09:57:47;;;;;;;18.80;11.55;;;;;;;;;;4978027;28;20621;-57
2022/01/14 10:00:13;;;;;;;16.45;9.88;;;;;;;;;;4997387;28;20187;-57
2022/01/14 10:02:40;;;;;;;16.60;11.05;;;;;;;;;;4995467;28;20176;-59
2022/01/14 10:05:06;;;;;;;18.52;11.20;;;;;;;;;;4990261;28;20266;-58
2022/01/14 10:07:33;;;;;;;15.60;9.75;;;;;;;;;;4999674;28;20190;-57
2022/01/14 10:10:00;;;;;;;41.53;29.90;;;;;;;;;;5001331;28;20729;-57
2022/01/14 10:12:30;;;;;;;23.38;12.32;;;;;;;;;;4996951;28;20203;-58
2022/01/14 10:15:00;;;;;;;42.92;23.38;;;;;;;;;;4995953;28;20290;-56
2022/01/14 10:17:33;;;;;;;32.08;16.58;;;;;;;;;;4986088;28;20199;-58
2022/01/14 10:19:59;;;;;;;25.13;15.48;;;;;;;;;;4997524;28;20164;-59
2022/01/14 10:22:24;;;;;;;12.30;7.95;;;;;;;;;;5001637;28;20649;-58
2022/01/14 10:24:54;;;;;;;34.15;17.38;;;;;;;;;;5007677;28;20171;-57
2022/01/14 10:27:29;;;;;;;13.55;8.85;;;;;;;;;;5005310;28;20187;-58
2022/01/14 10:29:57;;;;;;;32.28;16.60;;;;;;;;;;4998508;28;20681;-58
2022/01/14 10:32:29;;;;;;;18.48;10.70;;;;;;;;;;5004844;28;20183;-58
2022/01/14 10:35:02;;;;;;;16.15;9.13;;;;;;;;;;4993246;28;20684;-58
2022/01/14 10:37:31;;;;;;;19.40;9.88;;;;;;;;;;4995818;28;20171;-58
2022/01/14 10:39:56;;;;;;;17.33;10.40;;;;;;;;;;4996547;28;20225;-58
2022/01/14 10:42:21;;;;;;;34.80;16.83;;;;;;;;;;4998666;28;20183;-58
2022/01/14 10:44:47;;;;;;;21.45;11.20;;;;;;;;;;4996843;28;20184;-58
2022/01/14 10:47:17;;;;;;;26.88;13.27;;;;;;;;;;4995504;28;20495;-58
2022/01/14 10:49:43;;;;;;;15.68;9.75;;;;;;;;;;4998665;28;20231;-57
2022/01/14 10:52:09;;;;;;;17.15;10.45;;;;;;;;;;4999540;28;20648;-57
2022/01/14 10:54:42;;;;;;;16.55;8.50;;;;;;;;;;5003112;28;20219;-57
2022/01/14 10:57:15;;;;;;;17.25;8.48;;;;;;;;;;4997950;28;20175;-57
2022/01/14 10:59:40;;;;;;;18.35;10.18;;;;;;;;;;4981982;28;20442;-57
2022/01/14 11:02:28;;;;;;;18.77;9.43;;;;;;;;;;4977734;28;20667;-57
2022/01/14 11:05:13;;;;;;;12.50;8.05;;;;;;;;;;4995300;28;20278;-57
2022/01/14 11:07:39;;;;;;;11.80;8.00;;;;;;;;;;5002226;28;20266;-58
2022/01/14 11:10:24;;;;;;;17.70;10.85;;;;;;;;;;4997008;28;20259;-58
2022/01/14 11:12:50;;;;;;;14.85;8.63;;;;;;;;;;5000417;28;20186;-58
2022/01/14 11:15:15;;;;;;;16.70;9.68;;;;;;;;;;4998047;28;20199;-57
2022/01/14 11:17:42;;;;;;;46.45;23.83;;;;;;;;;;4994423;28;20274;-58
2022/01/14 11:20:09;;;;;;;21.48;12.00;;;;;;;;;;4997145;28;20193;-57
2022/01/14 11:25:18;;;;;;;11.00;7.50;;;;;;;;;;5000321;28;20853;-58
2022/01/14 11:27:49;;;;;;;15.60;7.88;;;;;;;;;;4994959;28;20253;-58
2022/01/14 11:30:14;;;;;;;110.05;47.38;;;;;;;;;;4994376;28;20180;-58
2022/01/14 11:32:56;;;;;;;48.78;24.55;;;;;;;;;;4996688;28;20230;-56
2022/01/14 11:35:22;;;;;;;21.10;12.15;;;;;;;;;;4991417;28;20692;-58
2022/01/14 11:37:47;;;;;;;12.82;7.57;;;;;;;;;;5002352;28;20176;-58
2022/01/14 11:40:15;;;;;;;9.40;6.20;;;;;;;;;;4996344;28;20176;-58
2022/01/14 11:42:59;;;;;;;9.75;6.55;;;;;;;;;;4995148;28;20179;-57
2022/01/14 11:45:43;;;;;;;9.18;5.70;;;;;;;;;;4997935;28;20206;-56
2022/01/14 11:48:28;;;;;;;6.85;5.90;;;;;;;;;;5005078;28;20206;-57
2022/01/14 11:50:58;;;;;;;14.05;10.43;;;;;;;;;;4992053;28;20227;-57
2022/01/14 11:53:31;;;;;;;23.05;15.55;;;;;;;;;;4994815;28;20235;-59
2022/01/14 11:55:57;;;;;;;13.20;9.80;;;;;;;;;;4996910;28;20206;-58
2022/01/14 11:58:22;;;;;;;13.02;8.50;;;;;;;;;;5001858;28;20279;-57
2022/01/14 12:00:47;;;;;;;9.52;6.72;;;;;;;;;;4999582;28;20195;-58
2022/01/14 12:03:16;;;;;;;10.68;6.88;;;;;;;;;;4996066;28;20187;-57
2022/01/14 12:05:50;;;;;;;6.07;4.97;;;;;;;;;;4997298;28;20194;-57
2022/01/14 12:08:18;;;;;;;7.75;5.53;;;;;;;;;;4995468;28;20182;-58
2022/01/14 12:10:45;;;;;;;9.32;6.25;;;;;;;;;;4997052;28;20703;-58
2022/01/14 12:13:24;;;;;;;8.40;6.28;;;;;;;;;;4998076;28;20175;-57
2022/01/14 12:16:08;;;;;;;10.25;6.43;;;;;;;;;;4995995;28;20688;-57
2022/01/14 12:18:57;;;;;;;10.07;6.82;;;;;;;;;;4998421;28;20170;-57
2022/01/14 12:21:41;;;;;;;10.32;6.25;;;;;;;;;;4998221;28;20199;-58
2022/01/14 12:24:15;;;;;;;9.98;7.05;;;;;;;;;;4980845;28;20190;-58
2022/01/14 12:27:00;;;;;;;10.20;6.93;;;;;;;;;;5015433;28;21096;-58
2022/01/14 12:29:43;;;;;;;11.30;7.10;;;;;;;;;;4999843;28;20194;-56
2022/01/14 12:32:12;;;;;;;12.88;6.88;;;;;;;;;;4997077;28;20680;-57
2022/01/14 12:34:39;;;;;;;8.85;6.50;;;;;;;;;;5002087;28;20203;-58
2022/01/14 12:37:05;;;;;;;9.18;6.63;;;;;;;;;;4997334;28;20184;-59
2022/01/14 12:39:30;;;;;;;8.70;6.57;;;;;;;;;;5002279;28;20185;-57
2022/01/14 12:41:56;;;;;;;8.07;5.88;;;;;;;;;;5003114;28;20171;-58
2022/01/14 12:44:22;;;;;;;6.78;5.60;;;;;;;;;;4989343;28;20180;-59
2022/01/14 12:46:58;;;;;;;7.95;6.18;;;;;;;;;;4979601;28;20246;-58
2022/01/14 12:49:24;;;;;;;9.27;6.00;;;;;;;;;;5002407;28;20198;-58
2022/01/14 12:52:03;;;;;;;9.23;6.32;;;;;;;;;;4996765;28;20197;-58
2022/01/14 12:54:30;;;;;;;6.30;5.38;;;;;;;;;;5002523;28;20715;-58
2022/01/14 12:56:56;;;;;;;11.40;5.90;;;;;;;;;;4992862;28;20287;-58
2022/01/14 12:59:21;;;;;;;7.30;5.28;;;;;;;;;;5004080;28;20207;-58
2022/01/14 13:01:54;;;;;;;7.82;5.53;;;;;;;;;;5006110;28;20273;-58
2022/01/14 13:04:20;;;;;;;8.30;5.65;;;;;;;;;;4993984;28;20175;-58
2022/01/14 13:06:45;;;;;;;8.10;6.32;;;;;;;;;;4978710;28;20176;-58
2022/01/14 13:09:11;;;;;;;7.78;5.53;;;;;;;;;;4980714;28;20877;-58
2022/01/14 13:11:51;;;;;;;8.70;6.00;;;;;;;;;;4990647;28;20263;-58
2022/01/14 13:14:22;;;;;;;7.15;5.95;;;;;;;;;;4998847;28;20203;-58
2022/01/14 13:16:48;;;;;;;10.82;6.93;;;;;;;;;;5001748;28;20226;-58
2022/01/14 13:19:20;;;;;;;12.75;6.93;;;;;;;;;;4995481;28;20603;-57
2022/01/14 13:21:45;;;;;;;13.88;8.45;;;;;;;;;;5001833;28;20213;-57
2022/01/14 13:24:18;;;;;;;10.90;8.35;;;;;;;;;;5000941;28;20175;-57
2022/01/14 13:26:44;;;;;;;12.00;7.57;;;;;;;;;;4984600;28;20210;-58
2022/01/14 13:29:09;;;;;;;10.07;6.97;;;;;;;;;;4979162;28;20619;-57
2022/01/14 13:31:34;;;;;;;9.45;6.40;;;;;;;;;;4983745;28;20191;-56
2022/01/14 13:34:00;;;;;;;10.15;7.75;;;;;;;;;;4999979;28;20213;-56
2022/01/14 13:36:25;;;;;;;11.63;7.07;;;;;;;;;;4999835;28;20499;-57
2022/01/14 13:39:06;;;;;;;7.70;6.88;;;;;;;;;;4998958;28;20176;-57
2022/01/14 13:41:31;;;;;;;11.88;7.20;;;;;;;;;;4997914;28;20179;-57
2022/01/14 13:44:00;;;;;;;12.20;7.20;;;;;;;;;;5004420;28;20180;-57
2022/01/14 13:46:32;;;;;;;6.63;5.13;;;;;;;;;;4997075;28;20223;-57
2022/01/14 13:48:57;;;;;;;6.90;5.60;;;;;;;;;;4997461;28;20191;-57
2022/01/14 13:51:24;;;;;;;8.05;5.70;;;;;;;;;;4999547;28;20682;-57
2022/01/14 13:53:50;;;;;;;9.18;6.68;;;;;;;;;;5002033;28;20714;-57
2022/01/14 13:56:16;;;;;;;12.63;9.52;;;;;;;;;;4999975;28;20175;-57
2022/01/14 13:58:44;;;;;;;11.75;7.93;;;;;;;;;;4999925;28;21059;-57
2022/01/14 14:01:10;;;;;;;13.25;8.98;;;;;;;;;;4990539;28;20180;-57
2022/01/14 14:03:50;;;;;;;11.18;7.88;;;;;;;;;;4999547;28;20186;-57
2022/01/14 14:06:24;;;;;;;37.53;22.65;;;;;;;;;;5004461;28;20562;-57
2022/01/14 14:16:57;;;;;;;68.70;36.22;;;;;;;;;;5004655;28;20194;-57
2022/01/14 14:19:23;;;;;;;59.00;34.63;;;;;;;;;;4997010;28;20566;-57
2022/01/14 14:22:07;;;;;;;36.30;22.92;;;;;;;;;;4999865;28;20216;-57
2022/01/14 14:24:32;;;;;;;24.95;16.98;;;;;;;;;;5001518;28;20197;-57
2022/01/14 14:27:08;;;;;;;20.45;14.30;;;;;;;;;;4997867;28;20281;-57
2022/01/14 14:29:33;;;;;;;14.25;10.55;;;;;;;;;;5000969;28;20183;-57
2022/01/14 14:32:13;;;;;;;19.60;13.10;;;;;;;;;;4996969;28;20229;-57
2022/01/14 14:34:38;;;;;;;16.08;10.60;;;;;;;;;;5000266;28;20241;-58
2022/01/14 14:37:04;;;;;;;13.85;9.43;;;;;;;;;;4999560;28;20672;-57
2022/01/14 14:39:29;;;;;;;23.63;13.15;;;;;;;;;;4998275;28;20240;-60
2022/01/14 14:41:54;;;;;;;24.90;13.57;;;;;;;;;;5000679;28;20638;-57
2022/01/14 14:44:20;;;;;;;14.07;9.77;;;;;;;;;;5000532;28;20179;-57
2022/01/14 14:46:45;;;;;;;23.92;12.05;;;;;;;;;;5003057;28;20179;-57
2022/01/14 14:49:10;;;;;;;48.70;20.30;;;;;;;;;;4995934;28;20254;-57
2022/01/14 14:51:35;;;;;;;46.63;19.58;;;;;;;;;;4976419;28;20187;-57
2022/01/14 14:54:01;;;;;;;20.63;10.73;;;;;;;;;;4978555;28;20246;-56
2022/01/14 14:56:26;;;;;;;33.78;16.52;;;;;;;;;;4986024;28;20175;-57
2022/01/14 14:58:52;;;;;;;17.83;9.98;;;;;;;;;;4997253;28;20186;-57
2022/01/14 15:01:18;;;;;;;18.15;10.05;;;;;;;;;;4994804;28;20176;-57
2022/01/14 15:03:43;;;;;;;12.35;8.02;;;;;;;;;;4999461;28;20192;-58
2022/01/14 15:06:09;;;;;;;4.40;3.50;;;;;;;;;;5005959;28;20171;-57
2022/01/14 15:08:34;;;;;;;6.90;5.63;;;;;;;;;;5024573;28;20181;-58
2022/01/14 15:11:00;;;;;;;13.65;7.07;;;;;;;;;;4990420;28;20211;-58
2022/01/14 15:13:29;;;;;;;25.33;16.60;;;;;;;;;;4995730;28;20244;-58